aviador You're here:

KMIV Decoded Metar

MILLVILLE in NJ, USA
Report Time2018-07-19 12:54:00
UTC Time2018-07-19 13:16:03
Flight Rules vfr VFR
Wind020° at 04 kt
W.Decomp.*RWY 10: 1.4 kt HW 3.7 kt LCW
RWY 32: 1.3 kt HW 3.8 kt RCW
W.Rank020° ranks 23
Current wind is below 020° avg. (7.4)
Visibility9999 m
Phenomena:N/A
Clouds:N/A
Expected CloudBase > 4,000 ft AGL from Temp-Dew spread
CeilingNone
Temp23°C (ISA +8)
Dew Point13°C (53% RH)
AAT22.5°C
QNH1019 hPa
Density Alt1,024 ft
Elevation75 ft
Report Wrong Elevation
Raw Report
KMIV 191254Z AUTO 02004KT 10SM CLR 23/13 A3009 RMK AO2 SLP186
T02330128=

Extra information for KMIV:More info

Metar Taf Metar & Taf Last 4 Metars F.Rules Stats Wind Profile Meteogram Temp Stats Airport Information Weather charts Add Link Nearby VenuesMetar ALERT Operation Metar Decoded Social comments

AIRNAV info for KMIV